Time;durP1;ratioP1;P1;durP2;ratioP2;P2;SDS_P1;SDS_P2;PMS_P1;PMS_P2;Temp;Humidity;BMP_temperature;BMP_pressure;BME280_temperature;BME280_humidity;BME280_pressure;Samples;Min_cycle;Max_cycle;Signal;HPM_P1;HPM_P2
2022/04/23 09:49:12;;;;;;;19.48;17.67;;;;;;;13.48;100.00;95881.78;4649005;29;20468;-60
2022/04/23 09:51:41;;;;;;;18.67;16.98;;;;;;;13.31;100.00;95899.22;4905066;29;20532;-57
2022/04/23 09:54:10;;;;;;;20.38;18.58;;;;;;;13.20;100.00;95892.09;4863860;29;20915;-61
2022/04/23 09:56:38;;;;;;;17.17;15.37;;;;;;;13.32;100.00;95895.53;4879940;29;20216;-60
2022/04/23 09:59:10;;;;;;;16.90;15.20;;;;;;;13.25;100.00;95894.03;4880064;29;20238;-61
2022/04/23 10:01:38;;;;;;;17.40;15.67;;;;;;;13.21;100.00;95888.38;4885839;29;20451;-62
2022/04/23 10:04:07;;;;;;;16.17;14.40;;;;;;;13.27;100.00;95898.09;4854226;29;20248;-60
2022/04/23 10:06:39;;;;;;;14.37;13.03;;;;;;;13.25;100.00;95896.69;4882829;29;20559;-59
2022/04/23 10:09:08;;;;;;;16.20;14.50;;;;;;;13.16;100.00;95893.59;4876902;29;20646;-62
2022/04/23 10:11:38;;;;;;;16.37;14.60;;;;;;;13.17;100.00;95890.69;4867011;29;20815;-63
2022/04/23 10:14:07;;;;;;;17.40;15.80;;;;;;;13.40;100.00;95896.22;4879072;29;20890;-61
2022/04/23 10:16:35;;;;;;;15.50;14.00;;;;;;;13.66;100.00;95894.94;4891625;29;20430;-56
2022/04/23 10:19:07;;;;;;;14.83;13.30;;;;;;;13.89;100.00;95887.91;4882753;29;20232;-62
2022/04/23 10:21:42;;;;;;;14.40;12.90;;;;;;;14.23;100.00;95887.22;4861965;29;21060;-61
2022/04/23 10:24:14;;;;;;;15.83;14.13;;;;;;;14.05;96.66;95894.34;4877927;29;20303;-61
2022/04/23 10:26:46;;;;;;;15.17;13.73;;;;;;;13.77;100.00;95887.94;4877172;29;20354;-60
2022/04/23 10:29:16;;;;;;;14.30;12.93;;;;;;;14.22;98.99;95896.25;4878419;29;20327;-61
2022/04/23 10:31:44;;;;;;;15.40;13.87;;;;;;;13.93;98.43;95890.94;4894337;29;20348;-59
2022/04/23 10:34:32;;;;;;;14.73;13.07;;;;;;;14.01;98.45;95895.88;4863856;29;20712;-62
2022/04/23 10:37:18;;;;;;;16.25;14.75;;;;;;;14.09;99.34;95884.81;4882308;29;20462;-60
2022/04/23 10:40:16;;;;;;;14.73;13.33;;;;;;;14.10;96.80;95885.66;4878888;29;20319;-61
2022/04/23 10:43:08;;;;;;;13.50;12.07;;;;;;;13.97;98.46;95892.06;4878617;29;20212;-63
2022/04/23 10:45:37;;;;;;;14.37;12.97;;;;;;;14.10;98.25;95877.66;4882901;29;20938;-57
2022/04/23 10:48:24;;;;;;;13.83;12.53;;;;;;;14.36;93.43;95881.59;4895296;29;20240;-58
2022/04/23 10:51:00;;;;;;;14.33;13.03;;;;;;;14.22;97.67;95874.94;4867175;29;20310;-60
2022/04/23 10:53:30;;;;;;;14.27;12.77;;;;;;;14.62;93.13;95874.03;4878854;29;20236;-64
2022/04/23 10:56:06;;;;;;;13.97;12.67;;;;;;;14.76;90.58;95864.66;4877156;29;20220;-53
2022/04/23 10:58:34;;;;;;;14.43;12.97;;;;;;;15.10;85.12;95863.81;4874258;29;20327;-57
2022/04/23 11:01:23;;;;;;;14.57;13.17;;;;;;;14.94;84.06;95876.13;4878930;29;20303;-59
2022/04/23 11:04:12;;;;;;;14.73;13.43;;;;;;;14.64;84.74;95874.59;4880488;29;20216;-61
2022/04/23 11:12:32;;;;;;;13.67;12.33;;;;;;;15.07;80.90;95858.97;4828108;29;20208;-57
2022/04/23 11:15:01;;;;;;;14.00;12.80;;;;;;;15.37;78.11;95857.78;4894646;29;20628;-58
2022/04/23 11:17:54;;;;;;;13.33;12.03;;;;;;;15.89;75.35;95858.41;4880220;29;20716;-62
2022/04/23 11:20:30;;;;;;;13.17;11.97;;;;;;;15.96;70.63;95844.88;4849892;29;20923;-59
2022/04/23 11:23:00;;;;;;;13.10;11.80;;;;;;;16.38;67.59;95846.88;4894427;29;20294;-60
2022/04/23 11:25:31;;;;;;;13.00;11.70;;;;;;;16.29;66.64;95851.06;4891873;29;20881;-61
2022/04/23 11:28:13;;;;;;;13.47;12.20;;;;;;;15.52;69.64;95853.69;4859167;29;20685;-55
2022/04/23 11:30:41;;;;;;;12.57;11.43;;;;;;;15.60;70.20;95850.59;4890975;29;20263;-60
2022/04/23 11:33:11;;;;;;;13.13;11.83;;;;;;;15.57;73.33;95853.78;4879000;29;20968;-60
2022/04/23 11:35:39;;;;;;;12.27;11.00;;;;;;;15.85;72.33;95846.59;4863359;29;20228;-63
2022/04/23 11:38:18;;;;;;;13.07;11.77;;;;;;;15.30;70.74;95843.81;4864045;29;20236;-60
2022/04/23 11:40:48;;;;;;;13.57;12.30;;;;;;;15.37;75.07;95855.13;4882041;29;20272;-61
2022/04/23 11:43:33;;;;;;;12.37;11.20;;;;;;;15.74;75.33;95856.38;4864214;29;20307;-63
2022/04/23 11:46:06;;;;;;;12.83;11.60;;;;;;;15.91;69.63;95853.66;4894905;29;20296;-59
2022/04/23 11:48:41;;;;;;;12.90;11.70;;;;;;;15.77;67.75;95850.53;4876870;29;20332;-61
2022/04/23 11:51:12;;;;;;;12.00;10.87;;;;;;;16.10;67.67;95842.59;4878352;29;20216;-62
2022/04/23 11:53:55;;;;;;;12.93;11.73;;;;;;;16.91;64.74;95840.88;4857007;29;20870;-60
2022/04/23 11:56:29;;;;;;;11.60;10.67;;;;;;;16.97;60.24;95842.50;4876426;29;20228;-57
2022/04/23 11:58:59;;;;;;;12.73;11.60;;;;;;;16.56;60.22;95851.03;4858804;29;20322;-61
2022/04/23 12:01:27;;;;;;;12.90;11.70;;;;;;;15.97;63.01;95843.81;4869315;29;20299;-62
2022/04/23 12:03:57;;;;;;;12.13;10.93;;;;;;;16.02;65.00;95850.03;4880449;29;20244;-59
2022/04/23 12:06:26;;;;;;;11.83;10.73;;;;;;;16.17;62.47;95844.03;4878263;29;20213;-59
2022/04/23 12:09:05;;;;;;;11.33;10.33;;;;;;;16.22;64.45;95840.59;4850857;29;20248;-61
2022/04/23 12:11:35;;;;;;;11.03;10.03;;;;;;;16.30;61.49;95842.81;4877872;29;20411;-63
2022/04/23 12:14:04;;;;;;;10.60;9.70;;;;;;;16.59;60.16;95833.69;4859981;29;20212;-63
2022/04/23 12:16:37;;;;;;;11.03;10.00;;;;;;;16.85;59.42;95834.69;4871933;29;20228;-60
2022/04/23 12:19:07;;;;;;;11.97;10.87;;;;;;;16.73;58.20;95826.03;4875577;29;20739;-64
2022/04/23 12:21:36;;;;;;;11.57;10.57;;;;;;;16.90;56.73;95815.19;4887563;29;20288;-60
2022/04/23 12:24:07;;;;;;;11.73;10.73;;;;;;;16.83;57.14;95817.25;4850764;29;20302;-62
2022/04/23 12:26:38;;;;;;;11.23;10.03;;;;;;;17.18;57.52;95808.69;4875002;29;20335;-60
2022/04/23 12:43:23;;;;;;;11.10;10.20;;;;;;;18.06;51.74;95792.91;4885216;29;20283;-61
2022/04/23 12:46:02;;;;;;;11.00;10.10;;;;;;;19.15;49.47;95784.00;4880792;29;20232;-61
2022/04/23 12:48:30;;;;;;;10.07;9.17;;;;;;;20.23;47.02;95777.28;4891199;29;20240;-59
2022/04/23 12:51:06;;;;;;;11.30;10.27;;;;;;;21.19;43.33;95767.00;4882230;29;20215;-56
2022/04/23 12:53:35;;;;;;;12.73;11.43;;;;;;;21.79;41.29;95763.84;4866238;29;20243;-60
2022/04/23 12:56:06;;;;;;;10.10;9.20;;;;;;;21.70;40.37;95762.88;4867199;29;20228;-54
2022/04/23 12:58:38;;;;;;;10.37;9.47;;;;;;;22.62;39.09;95767.97;4877516;29;20315;-60
2022/04/23 13:01:08;;;;;;;10.30;9.50;;;;;;;21.89;39.28;95767.47;4874336;29;20208;-57
2022/04/23 13:03:37;;;;;;;10.47;9.53;;;;;;;21.31;40.87;95769.28;4896993;29;20561;-55
2022/04/23 13:08:54;;;;;;;10.93;10.03;;;;;;;19.32;44.55;95765.69;4881881;29;20641;-53
2022/04/23 13:08:54;;;;;;;10.17;9.27;;;;;;;19.44;44.86;95767.22;4865632;29;20232;-57
2022/04/23 13:11:26;;;;;;;10.87;9.97;;;;;;;20.80;42.44;95761.47;4901903;29;20291;-57
2022/04/23 13:13:57;;;;;;;8.77;8.00;;;;;;;22.97;39.06;95756.84;4885304;29;20410;-60
2022/04/23 13:16:26;;;;;;;9.30;8.50;;;;;;;24.04;35.83;95754.94;4902570;29;20542;-55
2022/04/23 13:18:56;;;;;;;9.40;8.60;;;;;;;24.22;34.97;95764.00;4875049;29;21191;-58
2022/04/23 13:21:25;;;;;;;9.67;8.83;;;;;;;23.42;36.05;95751.66;4866507;29;20216;-57
2022/04/23 13:23:54;;;;;;;9.27;8.47;;;;;;;23.27;36.30;95760.88;4876366;29;20211;-52
2022/04/23 13:26:22;;;;;;;9.97;9.07;;;;;;;23.11;36.61;95754.16;4864783;29;20225;-59
2022/04/23 13:28:51;;;;;;;9.07;8.37;;;;;;;21.79;39.31;95763.84;4860788;29;20503;-59
2022/04/23 13:31:21;;;;;;;9.23;8.53;;;;;;;21.15;40.87;95745.22;4896184;29;20311;-54
2022/04/23 13:33:49;;;;;;;10.03;9.13;;;;;;;20.34;42.92;95741.16;4873856;29;20279;-56
2022/04/23 13:36:17;;;;;;;9.10;8.40;;;;;;;19.87;44.21;95737.19;4883623;29;20343;-57
2022/04/23 13:38:45;;;;;;;9.00;8.30;;;;;;;19.42;45.05;95742.53;4880392;29;20323;-51
2022/04/23 13:41:16;;;;;;;9.37;8.50;;;;;;;18.79;46.83;95734.69;4848584;29;20216;-57
2022/04/23 13:43:44;;;;;;;9.37;8.47;;;;;;;18.15;48.04;95738.78;4884145;29;20217;-56
2022/04/23 13:46:13;;;;;;;9.10;8.30;;;;;;;17.78;48.67;95741.38;4875410;29;20212;-61
2022/04/23 13:48:43;;;;;;;8.77;8.00;;;;;;;17.84;48.63;95749.47;4869956;29;20331;-59
2022/04/23 13:51:11;;;;;;;9.47;8.57;;;;;;;18.14;49.15;95735.31;4893073;29;20240;-61
2022/04/23 13:53:39;;;;;;;9.05;8.30;;;;;;;18.26;48.54;95740.41;4886004;29;20807;-57
2022/04/23 13:56:07;;;;;;;8.63;7.93;;;;;;;18.64;47.92;95735.53;4864227;29;20239;-59
2022/04/23 13:58:35;;;;;;;8.20;7.50;;;;;;;19.01;46.37;95719.38;4878426;29;20346;-54
2022/04/23 14:01:04;;;;;;;8.90;8.30;;;;;;;19.77;44.66;95722.75;4877056;29;20466;-56
2022/04/23 14:11:50;;;;;;;8.47;7.77;;;;;;;22.87;38.47;95725.44;4867023;29;20239;-56
2022/04/23 14:14:18;;;;;;;9.60;8.80;;;;;;;22.52;37.78;95725.75;4880031;29;20311;-63
2022/04/23 14:16:46;;;;;;;9.20;8.50;;;;;;;22.22;38.23;95729.75;4873721;29;20463;-56
2022/04/23 14:19:16;;;;;;;8.27;7.60;;;;;;;20.71;40.55;95728.19;4861630;29;20236;-58
2022/04/23 14:21:46;;;;;;;7.73;7.13;;;;;;;20.52;41.41;95720.81;4897597;29;20212;-55
2022/04/23 14:24:14;;;;;;;7.60;6.73;;;;;;;20.98;40.67;95717.97;4862566;29;20767;-58
2022/04/23 14:26:42;;;;;;;7.93;7.23;;;;;;;21.71;40.05;95724.06;4859674;29;20224;-62
2022/04/23 14:29:10;;;;;;;7.87;7.27;;;;;;;22.57;37.50;95724.09;4892221;29;20226;-61
2022/04/23 14:31:38;;;;;;;7.70;7.20;;;;;;;22.48;37.27;95722.06;4862337;29;20216;-59
2022/04/23 14:34:06;;;;;;;7.50;6.90;;;;;;;22.52;37.10;95717.66;4882387;29;20224;-60
2022/04/23 14:36:34;;;;;;;7.37;6.77;;;;;;;22.35;37.21;95712.03;4871479;29;20333;-58
2022/04/23 14:39:05;;;;;;;7.13;6.57;;;;;;;23.34;36.06;95700.22;4884719;29;20306;-55
2022/04/23 14:41:33;;;;;;;7.23;6.67;;;;;;;24.62;33.87;95702.94;4891988;29;20240;-57
2022/04/23 14:44:01;;;;;;;7.17;6.63;;;;;;;23.56;34.58;95694.06;4863585;29;20229;-57
2022/04/23 14:46:29;;;;;;;6.83;6.33;;;;;;;21.62;37.68;95707.72;4858629;29;20291;-57
2022/04/23 14:48:57;;;;;;;9.03;6.40;;;;;;;21.25;38.81;95699.31;4880404;29;20244;-60
2022/04/23 14:54:13;;;;;;;7.07;6.50;;;;;;;23.15;35.75;95689.50;4880889;29;21133;-58
2022/04/23 14:56:42;;;;;;;6.73;6.27;;;;;;;23.33;35.02;95680.53;4894047;29;20238;-58
2022/04/23 14:59:11;;;;;;;7.83;7.23;;;;;;;23.67;34.78;95691.94;4859237;29;20244;-60
2022/04/23 15:01:40;;;;;;;6.30;5.87;;;;;;;22.35;36.99;95685.84;4863701;29;20219;-56
2022/04/23 15:04:10;;;;;;;7.70;7.20;;;;;;;21.34;38.85;95683.28;4874402;29;20217;-55
2022/04/23 15:06:38;;;;;;;7.37;6.80;;;;;;;20.14;41.55;95684.88;4846888;29;20747;-59
2022/04/23 15:09:07;;;;;;;7.73;7.17;;;;;;;18.80;44.25;95674.59;4883022;29;20236;-58
2022/04/23 15:11:37;;;;;;;6.87;6.17;;;;;;;18.23;45.41;95680.06;4869154;29;20242;-61
2022/04/23 15:14:05;;;;;;;6.90;6.40;;;;;;;18.00;47.38;95683.28;4845394;29;20220;-59
2022/04/23 15:16:33;;;;;;;7.30;6.80;;;;;;;18.02;47.11;95681.19;4861486;29;21209;-60
2022/04/23 15:19:01;;;;;;;6.83;6.33;;;;;;;17.42;48.44;95678.94;4893862;29;20239;-56
2022/04/23 15:21:30;;;;;;;7.50;7.00;;;;;;;17.07;48.69;95676.72;4869777;29;20454;-58
2022/04/23 15:23:58;;;;;;;6.33;5.83;;;;;;;16.82;51.26;95682.75;4872380;29;20362;-54
2022/04/23 15:26:26;;;;;;;6.70;6.10;;;;;;;16.49;52.96;95680.19;4893164;29;20219;-57
2022/04/23 15:28:55;;;;;;;7.20;6.60;;;;;;;16.66;52.71;95675.69;4876542;29;20276;-53
2022/04/23 15:31:23;;;;;;;7.10;6.40;;;;;;;16.28;55.07;95678.44;4842258;29;20228;-60
2022/04/23 15:33:51;;;;;;;6.77;6.27;;;;;;;16.10;55.31;95679.66;4879492;29;20886;-60
2022/04/23 15:36:20;;;;;;;6.90;6.40;;;;;;;15.95;56.32;95673.13;4878278;29;20223;-60
2022/04/23 15:38:48;;;;;;;6.53;6.03;;;;;;;15.56;57.95;95681.31;4868831;29;20325;-56
2022/04/23 15:41:16;;;;;;;6.93;6.40;;;;;;;15.47;59.62;95675.63;4882943;29;20653;-57
2022/04/23 15:43:44;;;;;;;6.40;5.90;;;;;;;15.50;59.18;95677.78;4892193;29;20272;-56
2022/04/23 15:46:13;;;;;;;6.00;5.60;;;;;;;15.75;59.12;95671.06;4846229;29;20283;-60
2022/04/23 15:48:41;;;;;;;6.85;6.35;;;;;;;15.84;57.69;95664.19;4868594;29;20466;-59
2022/04/23 15:51:09;;;;;;;6.67;6.07;;;;;;;16.02;57.71;95670.22;4879485;29;20633;-60
2022/04/23 15:53:37;;;;;;;5.23;4.90;;;;;;;16.16;56.61;95665.25;4869391;29;20216;-58
2022/04/23 15:56:06;;;;;;;6.03;5.63;;;;;;;16.00;56.16;95662.47;4879608;29;20208;-57
2022/04/23 15:58:34;;;;;;;7.05;6.55;;;;;;;15.97;56.85;95656.84;4890200;29;20545;-62
2022/04/23 16:01:02;;;;;;;6.00;5.50;;;;;;;15.93;57.90;95658.41;4860579;29;20212;-59
2022/04/23 16:03:32;;;;;;;5.90;5.53;;;;;;;15.86;58.61;95661.25;4877637;29;20204;-59
2022/04/23 16:06:02;;;;;;;6.37;5.87;;;;;;;15.68;58.86;95654.44;4873842;29;20296;-59
2022/04/23 16:08:30;;;;;;;6.00;5.50;;;;;;;15.50;58.98;95656.44;4884370;29;20874;-60
2022/04/23 16:10:58;;;;;;;5.83;5.43;;;;;;;15.38;60.36;95658.47;4882809;29;20220;-61
2022/04/23 16:13:27;;;;;;;6.00;5.43;;;;;;;15.10;61.30;95647.75;4890515;29;20667;-59
2022/04/23 16:16:15;;;;;;;6.20;5.80;;;;;;;14.87;62.51;95649.66;4893970;29;20217;-59
2022/04/23 16:18:45;;;;;;;6.10;5.53;;;;;;;14.74;65.34;95642.00;4840475;29;20247;-56
2022/04/23 16:21:14;;;;;;;6.03;5.60;;;;;;;14.58;64.55;95641.00;4894250;29;20400;-57
2022/04/23 16:23:43;;;;;;;6.00;5.50;;;;;;;14.50;66.96;95646.75;4855676;29;20220;-61
2022/04/23 16:26:11;;;;;;;5.00;4.67;;;;;;;14.55;67.45;95644.16;4893223;29;20219;-58
2022/04/23 16:28:39;;;;;;;6.43;5.93;;;;;;;14.52;67.43;95649.97;4880965;29;20228;-56
2022/04/23 16:31:07;;;;;;;6.07;5.50;;;;;;;14.36;69.87;95644.47;4894803;29;20516;-57
2022/04/23 16:33:36;;;;;;;6.43;5.93;;;;;;;14.39;72.32;95646.63;4857393;29;20321;-60
2022/04/23 16:47:09;;;;;;;5.80;5.40;;;;;;;14.14;70.82;95644.41;4892846;29;20208;-55
2022/04/23 16:49:37;;;;;;;6.10;5.60;;;;;;;14.21;71.43;95644.25;4856624;29;20306;-59
2022/04/23 16:52:07;;;;;;;6.20;5.73;;;;;;;13.89;74.86;95648.31;4871685;29;20209;-54
2022/04/23 16:54:35;;;;;;;6.50;6.03;;;;;;;13.92;76.25;95647.81;4830425;29;20215;-57
2022/04/23 16:57:04;;;;;;;6.60;6.20;;;;;;;13.80;77.57;95639.13;4887594;29;20469;-57
2022/04/23 16:59:32;;;;;;;6.83;6.33;;;;;;;13.83;78.37;95641.28;4864608;29;20968;-57
2022/04/23 17:02:00;;;;;;;6.30;5.80;;;;;;;13.87;79.60;95639.75;4891690;29;20875;-53
2022/04/23 17:04:29;;;;;;;7.50;6.83;;;;;;;13.87;81.45;95645.09;4856394;29;20728;-57
2022/04/23 17:06:57;;;;;;;8.70;7.90;;;;;;;13.73;83.24;95634.78;4872385;29;20238;-58
2022/04/23 17:09:27;;;;;;;7.20;6.57;;;;;;;13.68;83.75;95632.03;4857858;29;20494;-59
2022/04/23 17:11:55;;;;;;;7.70;7.10;;;;;;;13.53;85.80;95624.59;4893528;29;20464;-52
2022/04/23 17:14:23;;;;;;;7.80;7.20;;;;;;;13.35;87.74;95616.81;4861635;29;20477;-56
2022/04/23 17:16:51;;;;;;;7.25;6.75;;;;;;;13.28;90.65;95614.31;4895126;29;20493;-60
2022/04/23 17:19:21;;;;;;;7.13;6.63;;;;;;;13.15;92.62;95602.91;4864928;29;20232;-58
2022/04/23 17:21:49;;;;;;;7.27;6.57;;;;;;;13.02;92.43;95613.84;4873385;29;20244;-56
2022/04/23 17:24:18;;;;;;;7.33;6.83;;;;;;;13.02;96.45;95622.63;4893414;29;20307;-59
2022/04/23 17:26:47;;;;;;;6.50;6.00;;;;;;;12.89;97.84;95622.91;4870047;29;20303;-58
2022/04/23 17:29:16;;;;;;;6.60;6.10;;;;;;;12.87;97.19;95611.72;4879909;29;20315;-59
2022/04/23 17:31:44;;;;;;;6.27;5.87;;;;;;;12.84;95.92;95601.56;4872492;29;20836;-59
2022/04/23 17:34:15;;;;;;;7.83;7.23;;;;;;;12.80;95.86;95603.06;4889612;29;20319;-58
2022/04/23 17:36:43;;;;;;;8.87;6.40;;;;;;;12.68;99.74;95603.13;4847597;29;20370;-56
2022/04/23 17:39:11;;;;;;;7.50;6.90;;;;;;;12.70;97.77;95611.66;4868358;29;20541;-55
2022/04/23 17:41:41;;;;;;;8.27;7.65;;;;;;;12.54;100.00;95611.38;4871568;29;20464;-56
2022/04/23 17:44:11;;;;;;;8.05;7.38;;;;;;;12.51;98.67;95606.53;4882138;29;20457;-61
2022/04/23 17:46:40;;;;;;;7.10;6.60;;;;;;;12.46;100.00;95598.44;4894636;29;20549;-60
2022/04/23 17:49:08;;;;;;;7.17;6.57;;;;;;;12.42;100.00;95594.63;4893869;29;20235;-57
2022/04/23 17:51:36;;;;;;;6.77;6.23;;;;;;;12.38;100.00;95609.41;4844894;29;20223;-61
2022/04/23 17:54:05;;;;;;;7.23;6.63;;;;;;;12.36;100.00;95600.88;4872262;29;20291;-58
2022/04/23 17:56:33;;;;;;;7.57;6.87;;;;;;;12.22;100.00;95603.81;4864040;29;21243;-58
2022/04/23 17:59:01;;;;;;;6.40;5.93;;;;;;;12.13;100.00;95602.56;4870802;29;20236;-60
2022/04/23 18:09:50;;;;;;;7.53;6.80;;;;;;;11.78;100.00;95622.69;4870481;29;20232;-58
2022/04/23 18:12:18;;;;;;;7.60;7.10;;;;;;;11.64;100.00;95622.09;4877269;29;20372;-57
2022/04/23 18:14:47;;;;;;;7.67;7.07;;;;;;;11.60;100.00;95618.31;4872974;29;20688;-59
2022/04/23 18:17:17;;;;;;;7.60;6.90;;;;;;;11.62;100.00;95624.19;4876271;29;20646;-59
2022/04/23 18:19:46;;;;;;;7.03;6.50;;;;;;;11.44;100.00;95625.06;4872501;29;20708;-60
2022/04/23 18:22:15;;;;;;;7.03;6.43;;;;;;;11.34;100.00;95622.97;4855857;29;20852;-57
2022/04/23 18:24:45;;;;;;;7.67;7.07;;;;;;;11.34;100.00;95622.19;4867481;29;20212;-61
2022/04/23 18:27:13;;;;;;;8.70;7.93;;;;;;;11.22;100.00;95622.97;4876318;29;20538;-59
2022/04/23 18:29:42;;;;;;;7.77;7.03;;;;;;;11.20;100.00;95625.03;4866408;29;20565;-59
2022/04/23 18:32:12;;;;;;;7.40;6.67;;;;;;;11.12;100.00;95631.47;4878754;29;20307;-61
2022/04/23 18:34:42;;;;;;;7.97;7.27;;;;;;;11.18;100.00;95626.28;4895957;29;20289;-59
2022/04/23 18:37:11;;;;;;;8.70;7.90;;;;;;;11.09;100.00;95629.25;4887351;28;20230;-60
2022/04/23 18:39:39;;;;;;;8.33;7.53;;;;;;;11.02;100.00;95631.19;4894006;29;20736;-60
2022/04/23 18:42:08;;;;;;;8.17;7.37;;;;;;;10.92;100.00;95628.25;4853109;29;20372;-62
2022/04/23 18:44:36;;;;;;;7.23;6.63;;;;;;;10.82;100.00;95628.81;4871748;29;20212;-61
2022/04/23 18:47:08;;;;;;;7.57;6.97;;;;;;;10.82;100.00;95637.56;4886598;29;20652;-60
2022/04/23 18:49:37;;;;;;;7.50;6.87;;;;;;;10.87;100.00;95642.19;4893493;29;20661;-60
2022/04/23 18:52:08;;;;;;;8.63;7.93;;;;;;;10.86;100.00;95637.94;4867915;29;20205;-60
2022/04/23 18:54:36;;;;;;;6.63;6.13;;;;;;;10.83;100.00;95648.97;4892031;29;20202;-60
2022/04/23 18:57:06;;;;;;;7.30;6.60;;;;;;;10.71;100.00;95649.72;4853169;29;20220;-62
2022/04/23 18:59:34;;;;;;;7.73;7.10;;;;;;;10.65;100.00;95647.97;4867881;29;20302;-58
2022/04/23 19:02:03;;;;;;;7.80;7.20;;;;;;;10.65;100.00;95649.81;4890830;29;20295;-61
2022/04/23 19:04:31;;;;;;;7.40;6.80;;;;;;;10.70;100.00;95647.28;4888121;29;20736;-59
2022/04/23 19:07:00;;;;;;;6.87;6.37;;;;;;;10.70;100.00;95650.75;4893477;29;20228;-61
2022/04/23 19:09:29;;;;;;;7.80;7.10;;;;;;;10.66;100.00;95646.91;4858461;29;20232;-58
2022/04/23 19:11:58;;;;;;;6.80;6.30;;;;;;;10.70;100.00;95658.69;4867049;29;20311;-60
2022/04/23 19:14:26;;;;;;;7.37;6.70;;;;;;;10.68;100.00;95647.50;4855774;29;20227;-57
2022/04/23 19:16:54;;;;;;;7.73;7.10;;;;;;;10.60;100.00;95644.34;4897052;29;21875;-62
2022/04/23 19:19:23;;;;;;;7.67;6.97;;;;;;;10.68;100.00;95644.84;4878877;29;20778;-59
2022/04/23 19:27:39;;;;;;;9.57;6.67;;;;;;;10.56;100.00;95634.19;4859943;29;20269;-61
2022/04/23 19:30:08;;;;;;;8.18;7.50;;;;;;;10.47;100.00;95635.53;4848493;29;20469;-61
2022/04/23 19:32:43;;;;;;;7.30;6.70;;;;;;;10.33;100.00;95644.63;4893825;29;20235;-59
2022/04/23 19:35:12;;;;;;;8.07;7.20;;;;;;;10.40;100.00;95635.59;4880723;29;20223;-60
2022/04/23 19:37:40;;;;;;;8.90;7.07;;;;;;;10.24;100.00;95636.16;4892254;29;20204;-60
2022/04/23 19:40:11;;;;;;;7.47;6.83;;;;;;;10.18;100.00;95631.75;4857058;29;20287;-62
2022/04/23 19:42:39;;;;;;;7.90;7.27;;;;;;;10.03;100.00;95626.81;4847169;29;20212;-57
2022/04/23 19:45:08;;;;;;;7.43;6.73;;;;;;;9.85;100.00;95620.47;4858720;29;20974;-60
2022/04/23 19:47:36;;;;;;;7.70;7.10;;;;;;;10.01;100.00;95615.63;4894842;29;20211;-61
2022/04/23 19:50:05;;;;;;;8.63;7.83;;;;;;;9.98;100.00;95611.56;4875931;29;21214;-60
2022/04/23 19:52:36;;;;;;;7.47;6.87;;;;;;;9.96;100.00;95603.06;4865035;29;20258;-61
2022/04/23 19:55:06;;;;;;;7.33;6.73;;;;;;;9.97;100.00;95617.91;4855959;29;20859;-58
2022/04/23 19:57:35;;;;;;;7.20;6.70;;;;;;;9.83;100.00;95612.75;4883637;29;20224;-60
2022/04/23 20:00:07;;;;;;;7.37;6.80;;;;;;;9.89;100.00;95608.44;4850104;29;20232;-61
2022/04/23 20:02:35;;;;;;;7.00;6.40;;;;;;;9.71;100.00;95609.19;4886746;29;20248;-59
2022/04/23 20:05:04;;;;;;;7.73;7.13;;;;;;;9.67;100.00;95606.16;4876847;29;20284;-58
2022/04/23 20:07:32;;;;;;;8.37;7.10;;;;;;;9.52;100.00;95603.06;4870149;29;20580;-59
2022/04/23 20:10:00;;;;;;;7.73;7.03;;;;;;;9.54;100.00;95604.44;4856117;29;20358;-57
2022/04/23 20:12:29;;;;;;;8.37;7.57;;;;;;;9.60;100.00;95594.03;4889763;29;20227;-57
2022/04/23 20:14:58;;;;;;;7.23;6.63;;;;;;;9.64;100.00;95592.56;4868333;29;20271;-60
2022/04/23 20:17:26;;;;;;;8.10;7.40;;;;;;;9.44;100.00;95596.19;4871598;29;20401;-58
2022/04/23 20:19:55;;;;;;;8.00;7.23;;;;;;;9.50;100.00;95592.69;4877977;29;20481;-56
2022/04/23 20:22:43;;;;;;;7.57;6.93;;;;;;;9.43;100.00;95594.59;4890806;29;20344;-61
2022/04/23 20:25:12;;;;;;;7.90;7.30;;;;;;;9.38;100.00;95583.84;4891320;29;20208;-63
2022/04/23 20:27:41;;;;;;;6.60;6.10;;;;;;;9.35;100.00;95585.06;4853858;29;20217;-60
2022/04/23 20:30:11;;;;;;;7.83;7.23;;;;;;;9.46;100.00;95588.03;4880599;29;20399;-55
2022/04/23 20:32:39;;;;;;;7.80;7.10;;;;;;;9.44;100.00;95579.50;4868682;29;20761;-59
2022/04/23 20:38:09;;;;;;;7.13;6.57;;;;;;;9.34;100.00;95574.72;4889598;29;20669;-58
2022/04/23 20:40:38;;;;;;;8.10;7.20;;;;;;;9.29;100.00;95561.34;4890166;29;20874;-60
2022/04/23 20:43:08;;;;;;;7.70;6.93;;;;;;;9.28;100.00;95573.75;4869865;29;20216;-58
2022/04/23 20:45:39;;;;;;;8.53;7.83;;;;;;;9.20;100.00;95566.88;4875805;29;20307;-59
2022/04/23 20:48:10;;;;;;;7.73;7.13;;;;;;;9.19;100.00;95559.97;4856760;29;21470;-59
2022/04/23 20:50:38;;;;;;;7.40;6.80;;;;;;;9.08;100.00;95565.97;4895424;29;21250;-60
2022/04/23 20:53:13;;;;;;;7.17;6.47;;;;;;;9.07;100.00;95562.50;4880865;29;20882;-55
2022/04/23 20:55:44;;;;;;;7.20;6.60;;;;;;;9.02;100.00;95566.81;4885174;29;20210;-59
2022/04/23 20:58:12;;;;;;;6.50;6.00;;;;;;;8.87;100.00;95565.28;4857761;29;21445;-54
2022/04/23 21:00:42;;;;;;;7.97;7.37;;;;;;;8.88;100.00;95555.53;4873254;29;20225;-55
2022/04/23 21:03:10;;;;;;;6.97;6.37;;;;;;;8.98;100.00;95561.16;4858187;29;21063;-57
2022/04/23 21:05:38;;;;;;;7.53;6.93;;;;;;;8.91;100.00;95561.22;4894933;29;20220;-59
2022/04/23 21:08:08;;;;;;;7.53;6.93;;;;;;;8.88;100.00;95550.25;4879628;29;20488;-53
2022/04/23 21:10:37;;;;;;;7.57;6.87;;;;;;;8.67;100.00;95555.66;4895353;29;20264;-60
2022/04/23 21:13:06;;;;;;;7.53;6.97;;;;;;;8.61;100.00;95559.16;4866607;29;21573;-58
2022/04/23 21:15:35;;;;;;;7.47;6.87;;;;;;;8.62;100.00;95558.13;4895935;29;20678;-57
2022/04/23 21:18:05;;;;;;;7.20;6.60;;;;;;;8.62;100.00;95550.22;4860785;29;20443;-57
2022/04/23 21:20:33;;;;;;;8.00;7.20;;;;;;;8.61;100.00;95550.41;4870833;29;20228;-59
2022/04/23 21:23:01;;;;;;;7.53;6.87;;;;;;;8.54;100.00;95545.97;4881179;29;20319;-55
2022/04/23 21:25:29;;;;;;;8.57;7.53;;;;;;;8.56;100.00;95550.22;4896368;29;20208;-60
2022/04/23 21:27:57;;;;;;;7.37;6.67;;;;;;;8.54;100.00;95540.69;4858727;29;20220;-58
2022/04/23 21:30:25;;;;;;;7.60;6.90;;;;;;;8.53;100.00;95539.06;4894558;29;20300;-58
2022/04/23 21:32:53;;;;;;;7.17;6.57;;;;;;;8.49;100.00;95535.25;4856153;29;20938;-57
2022/04/23 21:35:23;;;;;;;7.90;7.30;;;;;;;8.42;100.00;95528.34;4872221;29;20342;-54
2022/04/23 21:37:51;;;;;;;7.23;6.63;;;;;;;8.44;100.00;95531.59;4886635;29;20661;-60
2022/04/23 21:40:19;;;;;;;7.87;7.27;;;;;;;8.28;100.00;95525.78;4891986;29;20324;-54
2022/04/23 21:45:33;;;;;;;8.40;7.60;;;;;;;8.34;100.00;95513.59;4880529;29;20414;-53
2022/04/23 21:48:02;;;;;;;8.37;7.63;;;;;;;8.26;100.00;95507.50;4851020;29;20423;-59
2022/04/23 21:50:31;;;;;;;8.50;7.77;;;;;;;8.23;100.00;95512.41;4873107;29;20303;-59
2022/04/23 21:53:01;;;;;;;8.83;8.07;;;;;;;8.32;100.00;95500.59;4890796;29;20438;-62
2022/04/23 21:55:30;;;;;;;9.17;8.37;;;;;;;8.25;100.00;95495.34;4895574;29;20347;-57
2022/04/23 21:57:59;;;;;;;8.13;7.43;;;;;;;8.36;100.00;95490.44;4891529;29;20857;-57
2022/04/23 22:01:05;;;;;;;8.33;7.57;;;;;;;8.29;100.00;95482.53;4846131;29;20259;-57
2022/04/23 22:03:33;;;;;;;8.93;8.13;;;;;;;8.30;100.00;95491.25;4858846;29;20212;-60
2022/04/23 22:06:02;;;;;;;8.20;7.50;;;;;;;8.25;100.00;95479.50;4867528;29;21155;-54
2022/04/23 22:08:30;;;;;;;8.90;8.20;;;;;;;8.25;100.00;95484.78;4896843;29;20255;-61
2022/04/23 22:10:58;;;;;;;8.90;8.00;;;;;;;8.19;100.00;95479.56;4892765;29;20291;-57
2022/04/23 22:13:27;;;;;;;8.57;7.87;;;;;;;8.18;100.00;95473.47;4894249;29;20283;-60
2022/04/23 22:15:55;;;;;;;8.33;7.63;;;;;;;8.17;100.00;95471.06;4853586;29;20216;-54
2022/04/23 22:18:23;;;;;;;8.53;7.83;;;;;;;8.05;100.00;95466.41;4870241;29;20232;-61
2022/04/23 22:20:51;;;;;;;9.03;8.23;;;;;;;8.02;100.00;95458.94;4877989;29;20244;-58
2022/04/23 22:23:21;;;;;;;9.20;8.30;;;;;;;8.03;100.00;95459.75;4872829;29;20220;-57
2022/04/23 22:25:49;;;;;;;9.57;8.77;;;;;;;7.90;100.00;95466.69;4890073;29;20212;-59
2022/04/23 22:28:17;;;;;;;9.13;8.30;;;;;;;7.95;100.00;95461.59;4895654;29;20240;-53
2022/04/23 22:30:45;;;;;;;8.63;7.83;;;;;;;8.05;100.00;95444.53;4860619;29;20212;-58